Terminal Aerodrome Forecast
Issued by NWS

Current Version | Previous Version | Text Only | Print | Product List | Glossary On
Versions: 1 2 3 4 5 6 7 8 9 10 11 12 13 14
000
FTUS43 KIND 280533
TAFLAF
TAF
KLAF 280533Z 2806/2906 10002KT P6SM SCT250
      TEMPO 2809/2812 4SM BR
     FM281500 17007KT P6SM SCT120 BKN250
     FM282300 12004KT P6SM BKN150=

USA.gov is the U.S. government's official web portal to all federal, state and local government web resources and services.